createdAt,value
2022-12-18T00:00:09.172Z,88.20
2022-12-18T00:00:44.603Z,88.44
2022-12-18T00:01:24.940Z,88.26
2022-12-18T00:01:59.482Z,88.00
2022-12-18T00:02:31.075Z,88.34
2022-12-18T00:03:02.680Z,88.33
2022-12-18T00:03:35.061Z,88.22
2022-12-18T00:04:09.454Z,88.11
2022-12-18T00:04:41.135Z,88.27
2022-12-18T00:05:12.700Z,88.00
2022-12-18T00:05:51.732Z,87.99
2022-12-18T00:06:25.636Z,87.88
2022-12-18T00:06:57.451Z,88.08
2022-12-18T00:07:29.066Z,88.16
2022-12-18T00:08:00.686Z,87.90
2022-12-18T00:08:33.642Z,87.79
2022-12-18T00:09:05.518Z,87.81
2022-12-18T00:09:40.145Z,87.95
2022-12-18T00:10:15.356Z,88.15
2022-12-18T00:10:47.272Z,88.12
2022-12-18T00:11:21.194Z,87.69
2022-12-18T00:11:52.708Z,87.73
2022-12-18T00:12:24.288Z,87.89
2022-12-18T00:12:55.857Z,87.85
2022-12-18T00:13:28.316Z,88.05
2022-12-18T00:14:00.814Z,88.07
2022-12-18T00:14:32.329Z,87.75
2022-12-18T00:15:04.520Z,87.99
2022-12-18T00:15:37.828Z,88.06
2022-12-18T00:16:21.326Z,87.92
2022-12-18T00:16:52.971Z,87.79
2022-12-18T00:17:24.510Z,87.98
2022-12-18T00:17:56.051Z,87.89
2022-12-18T00:18:27.678Z,87.73
2022-12-18T00:19:00.335Z,87.96
2022-12-18T00:19:31.895Z,87.80
2022-12-18T00:20:03.730Z,87.63
2022-12-18T00:20:39.701Z,87.82
2022-12-18T00:21:13.472Z,88.01
2022-12-18T00:21:45.076Z,87.79
2022-12-18T00:22:16.644Z,87.44
2022-12-18T00:22:48.247Z,87.71
2022-12-18T00:23:19.700Z,87.45
2022-12-18T00:23:52.280Z,87.48
2022-12-18T00:24:23.814Z,87.50
2022-12-18T00:24:55.333Z,87.48
2022-12-18T00:25:26.912Z,87.54
2022-12-18T00:26:07.697Z,87.39
2022-12-18T00:26:39.912Z,87.46
2022-12-18T00:27:11.562Z,87.54
2022-12-18T00:27:43.073Z,87.64
2022-12-18T00:28:14.668Z,87.85
2022-12-18T00:28:46.931Z,88.24
2022-12-18T00:29:18.419Z,88.00
2022-12-18T00:29:50.151Z,87.66
2022-12-18T00:30:21.921Z,87.98
2022-12-18T00:31:10.856Z,87.67
2022-12-18T00:31:44.056Z,87.73
2022-12-18T00:32:15.676Z,88.23
2022-12-18T00:32:47.265Z,88.04
2022-12-18T00:33:19.269Z,87.62
2022-12-18T00:33:53.966Z,87.60
2022-12-18T00:34:26.804Z,87.91
2022-12-18T00:34:58.294Z,87.70
2022-12-18T00:35:29.859Z,87.66
2022-12-18T00:36:11.116Z,87.54
2022-12-18T00:36:42.907Z,87.66
2022-12-18T00:37:20.239Z,87.87
2022-12-18T00:37:52.029Z,87.56
2022-12-18T00:38:23.615Z,87.67
2022-12-18T00:38:56.685Z,88.07
2022-12-18T00:39:28.122Z,88.03
2022-12-18T00:39:59.724Z,87.97
2022-12-18T00:40:31.302Z,87.68
2022-12-18T00:41:05.857Z,87.43
2022-12-18T00:41:55.991Z,87.61
2022-12-18T00:42:46.060Z,87.55
2022-12-18T00:43:17.617Z,87.78
2022-12-18T00:43:49.160Z,88.06
2022-12-18T00:44:21.087Z,87.72
2022-12-18T00:44:52.642Z,88.04
2022-12-18T00:45:29.523Z,88.31
2022-12-18T00:46:01.146Z,88.17
2022-12-18T00:46:33.148Z,88.02
2022-12-18T00:47:53.682Z,87.53
2022-12-18T00:48:25.133Z,87.71
2022-12-18T00:48:56.648Z,87.79
2022-12-18T00:49:28.238Z,88.07
2022-12-18T00:49:59.726Z,87.80
2022-12-18T00:50:31.209Z,88.09
2022-12-18T00:51:03.300Z,88.16
2022-12-18T00:51:34.892Z,88.09
2022-12-18T00:52:06.411Z,88.01
2022-12-18T00:52:38.122Z,87.85
2022-12-18T00:53:09.687Z,88.07
2022-12-18T00:53:42.162Z,87.89
2022-12-18T00:54:14.187Z,87.99
2022-12-18T00:54:45.630Z,87.93
2022-12-18T00:55:17.384Z,87.80
2022-12-18T00:55:48.908Z,87.64
2022-12-18T00:56:24.342Z,87.75
2022-12-18T00:56:56.223Z,87.55
2022-12-18T00:57:27.753Z,87.72
2022-12-18T00:57:59.264Z,88.06
2022-12-18T00:58:30.772Z,87.82
2022-12-18T00:59:02.288Z,87.94
2022-12-18T00:59:33.854Z,88.06
2022-12-18T01:00:06.884Z,87.88
2022-12-18T01:00:39.057Z,87.88
2022-12-18T01:01:10.633Z,88.05
2022-12-18T01:01:42.382Z,87.97
2022-12-18T01:02:14.294Z,87.93
2022-12-18T01:02:46.048Z,88.07
2022-12-18T01:03:17.716Z,87.94
2022-12-18T01:03:49.690Z,87.87
2022-12-18T01:04:21.289Z,88.10
2022-12-18T01:04:52.803Z,87.99
2022-12-18T01:05:24.411Z,87.83
2022-12-18T01:05:55.846Z,88.02
2022-12-18T01:06:27.564Z,88.02
2022-12-18T01:06:59.029Z,88.02
2022-12-18T01:07:30.464Z,87.79
2022-12-18T01:08:01.915Z,87.65
2022-12-18T01:08:33.381Z,87.94
2022-12-18T01:09:05.135Z,87.78
2022-12-18T01:09:36.644Z,87.45
2022-12-18T01:10:10.417Z,87.73
2022-12-18T01:10:42.603Z,87.55
2022-12-18T01:11:18.022Z,87.57
2022-12-18T01:11:49.533Z,87.62
2022-12-18T01:12:21.088Z,87.81
2022-12-18T01:12:52.753Z,87.68
2022-12-18T01:13:24.274Z,87.85
2022-12-18T01:13:56.046Z,87.90
2022-12-18T01:14:27.613Z,87.91
2022-12-18T01:14:59.129Z,87.85
2022-12-18T01:15:30.718Z,87.85
2022-12-18T01:16:02.617Z,87.87
2022-12-18T01:16:34.092Z,87.70
2022-12-18T01:17:05.695Z,87.57
2022-12-18T01:17:37.291Z,87.72
2022-12-18T01:18:08.831Z,87.69
2022-12-18T01:18:40.641Z,87.72
2022-12-18T01:19:12.595Z,88.08
2022-12-18T01:19:44.090Z,87.99
2022-12-18T01:20:15.954Z,88.28
2022-12-18T01:20:47.528Z,87.96
2022-12-18T01:21:19.105Z,88.03
2022-12-18T01:21:50.726Z,88.00
2022-12-18T01:22:22.218Z,87.95
2022-12-18T01:22:53.812Z,88.22
2022-12-18T01:23:25.310Z,88.05
2022-12-18T01:23:58.116Z,88.12
2022-12-18T01:24:29.779Z,88.44
2022-12-18T01:25:02.049Z,88.05
2022-12-18T01:25:33.600Z,88.01
2022-12-18T01:26:08.532Z,88.21
2022-12-18T01:26:40.134Z,88.03
2022-12-18T01:27:11.829Z,88.19
2022-12-18T01:27:43.357Z,88.20
2022-12-18T01:28:14.812Z,88.25
2022-12-18T01:28:46.280Z,87.88
2022-12-18T01:29:17.997Z,87.86
2022-12-18T01:29:50.294Z,87.86
2022-12-18T01:30:21.892Z,87.97
2022-12-18T01:30:53.359Z,87.84
2022-12-18T01:31:27.507Z,88.08
2022-12-18T01:31:59.215Z,87.91
2022-12-18T01:32:31.980Z,88.15
2022-12-18T01:33:05.734Z,88.27
2022-12-18T01:33:37.876Z,87.78
2022-12-18T01:34:10.040Z,87.84
2022-12-18T01:34:41.782Z,87.66
2022-12-18T01:35:13.216Z,87.73
2022-12-18T01:35:44.788Z,87.68
2022-12-18T01:36:36.633Z,87.78
2022-12-18T01:37:08.259Z,87.63
2022-12-18T01:37:39.791Z,87.83
2022-12-18T01:38:11.351Z,87.84
2022-12-18T01:38:43.382Z,87.76
2022-12-18T01:39:16.163Z,87.53
2022-12-18T01:39:47.649Z,87.97
2022-12-18T01:40:19.114Z,87.69
2022-12-18T01:40:50.603Z,87.75
2022-12-18T01:41:27.259Z,87.70
2022-12-18T01:42:05.640Z,87.44
2022-12-18T01:42:37.404Z,87.86
2022-12-18T01:43:59.395Z,87.69
2022-12-18T01:45:01.624Z,87.78
2022-12-18T01:45:33.126Z,87.75
2022-12-18T01:46:04.774Z,87.75
2022-12-18T01:46:36.298Z,87.82
2022-12-18T01:47:08.029Z,87.89
2022-12-18T01:47:46.453Z,87.53
2022-12-18T01:48:18.020Z,87.55
2022-12-18T01:48:52.413Z,88.04
2022-12-18T01:49:23.871Z,87.57
2022-12-18T01:49:56.785Z,87.70
2022-12-18T01:50:36.904Z,87.68
2022-12-18T01:51:11.218Z,87.58
2022-12-18T01:51:45.098Z,87.72
2022-12-18T01:52:18.772Z,87.88
2022-12-18T01:52:56.388Z,87.49
2022-12-18T01:53:27.962Z,87.70
2022-12-18T01:54:19.101Z,87.36
2022-12-18T01:54:53.181Z,87.46
2022-12-18T01:55:27.429Z,87.62
2022-12-18T01:56:00.148Z,87.65
2022-12-18T01:56:31.837Z,87.69
2022-12-18T01:57:03.452Z,87.86
2022-12-18T01:57:35.941Z,87.85
2022-12-18T01:58:07.728Z,87.49
2022-12-18T01:58:48.215Z,87.69
2022-12-18T01:59:19.971Z,87.54
2022-12-18T01:59:54.787Z,87.52
2022-12-18T02:00:27.553Z,87.33
2022-12-18T02:00:59.110Z,87.65
2022-12-18T02:01:32.424Z,87.79
2022-12-18T02:02:04.401Z,87.49
2022-12-18T02:02:36.451Z,87.34
2022-12-18T02:03:08.052Z,87.56
2022-12-18T02:03:43.796Z,87.76
2022-12-18T02:04:28.016Z,87.81
2022-12-18T02:04:59.639Z,87.78
2022-12-18T02:05:56.536Z,87.51
2022-12-18T02:06:36.529Z,87.23
2022-12-18T02:07:45.434Z,87.44
2022-12-18T02:08:44.540Z,87.60
2022-12-18T02:09:23.837Z,87.85
2022-12-18T02:10:04.904Z,87.73
2022-12-18T02:10:57.172Z,87.55
2022-12-18T02:12:04.834Z,87.56
2022-12-18T02:12:46.260Z,87.52
2022-12-18T02:13:41.858Z,87.50
2022-12-18T02:14:39.927Z,87.47
2022-12-18T02:15:25.246Z,87.55
2022-12-18T02:16:16.968Z,87.53
2022-12-18T02:17:22.069Z,87.50
2022-12-18T02:17:59.502Z,87.41
2022-12-18T02:18:39.322Z,87.66
2022-12-18T02:19:30.154Z,87.17
2022-12-18T02:20:33.070Z,87.42
2022-12-18T02:21:19.580Z,87.36
2022-12-18T02:22:03.498Z,87.26
2022-12-18T02:22:54.841Z,87.64
2022-12-18T02:23:42.432Z,87.27
2022-12-18T02:24:30.757Z,87.16
2022-12-18T02:25:13.909Z,87.27
2022-12-18T02:26:03.161Z,87.43
2022-12-18T02:26:41.262Z,87.33
2022-12-18T02:27:14.154Z,87.35
2022-12-18T02:27:49.686Z,87.33
2022-12-18T02:28:24.852Z,87.22
2022-12-18T02:28:59.434Z,87.31
2022-12-18T02:29:50.535Z,87.17
2022-12-18T02:30:24.736Z,87.15
2022-12-18T02:31:00.581Z,87.24
2022-12-18T02:31:39.954Z,87.14
2022-12-18T02:32:17.837Z,86.93
2022-12-18T02:32:53.174Z,86.86
2022-12-18T02:33:26.678Z,87.04
2022-12-18T02:34:03.203Z,86.92
2022-12-18T02:34:38.882Z,86.91
2022-12-18T02:35:15.078Z,86.96
2022-12-18T02:35:47.816Z,87.12
2022-12-18T02:36:21.114Z,86.78
2022-12-18T02:36:55.233Z,87.14
2022-12-18T02:37:28.954Z,87.10
2022-12-18T02:38:01.322Z,86.71
2022-12-18T02:38:34.904Z,86.81
2022-12-18T02:39:09.946Z,86.62
2022-12-18T02:39:44.045Z,86.68
2022-12-18T02:40:18.122Z,86.68
2022-12-18T02:40:51.928Z,86.70
2022-12-18T02:41:24.001Z,86.64
2022-12-18T02:41:55.736Z,86.38
2022-12-18T02:42:29.044Z,86.88
2022-12-18T02:43:15.281Z,86.56
2022-12-18T02:43:54.797Z,86.53
2022-12-18T02:44:26.481Z,86.64
2022-12-18T02:44:58.030Z,86.53
2022-12-18T02:45:29.588Z,86.65
2022-12-18T02:46:22.030Z,86.31
2022-12-18T02:46:55.030Z,86.55
2022-12-18T02:47:31.914Z,86.63
2022-12-18T02:48:03.725Z,86.63
2022-12-18T02:48:37.197Z,86.35
2022-12-18T02:49:11.330Z,86.22
2022-12-18T02:50:05.152Z,86.35
2022-12-18T02:50:45.890Z,86.61
2022-12-18T02:51:36.180Z,86.24
2022-12-18T02:52:32.541Z,86.56
2022-12-18T02:53:23.057Z,86.17
2022-12-18T02:54:01.915Z,86.29
2022-12-18T02:54:52.797Z,86.38
2022-12-18T02:55:49.973Z,86.18
2022-12-18T02:56:30.095Z,86.12
2022-12-18T02:57:13.502Z,86.37
2022-12-18T02:57:55.002Z,86.34
2022-12-18T02:58:41.614Z,86.36
2022-12-18T02:59:32.736Z,86.13
2022-12-18T03:00:13.287Z,86.14
2022-12-18T03:00:57.678Z,86.03
2022-12-18T03:01:41.449Z,85.96
2022-12-18T03:02:27.346Z,86.08
2022-12-18T03:03:07.966Z,86.25
2022-12-18T03:03:51.722Z,86.03
2022-12-18T03:04:44.700Z,86.14
2022-12-18T03:06:20.862Z,86.04
2022-12-18T03:06:56.985Z,86.00
2022-12-18T03:07:41.097Z,86.27
2022-12-18T03:08:28.837Z,86.17
2022-12-18T03:09:23.018Z,85.76
2022-12-18T03:09:56.388Z,85.84
2022-12-18T03:10:35.201Z,85.77
2022-12-18T03:11:11.788Z,85.77
2022-12-18T03:12:08.069Z,85.70
2022-12-18T03:12:47.708Z,85.85
2022-12-18T03:13:27.866Z,85.56
2022-12-18T03:14:00.992Z,85.54
2022-12-18T03:14:37.827Z,85.57
2022-12-18T03:15:18.344Z,85.41
2022-12-18T03:15:54.436Z,85.50
2022-12-18T03:16:29.795Z,85.39
2022-12-18T03:17:10.397Z,85.45
2022-12-18T03:17:47.436Z,85.44
2022-12-18T03:18:39.985Z,85.37
2022-12-18T03:19:17.867Z,85.29
2022-12-18T03:19:50.922Z,85.46
2022-12-18T03:20:24.718Z,85.53
2022-12-18T03:21:01.367Z,85.34
2022-12-18T03:21:43.154Z,85.30
2022-12-18T03:22:17.197Z,85.45
2022-12-18T03:22:52.921Z,85.19
2022-12-18T03:23:30.091Z,85.21
2022-12-18T03:24:04.381Z,84.90
2022-12-18T03:24:40.000Z,84.85
2022-12-18T03:25:15.127Z,85.23
2022-12-18T03:25:48.643Z,85.18
2022-12-18T03:26:26.293Z,84.94
2022-12-18T03:27:04.107Z,85.18
2022-12-18T03:27:40.054Z,85.16
2022-12-18T03:28:16.705Z,85.12
2022-12-18T03:28:55.520Z,85.12
2022-12-18T03:29:34.887Z,84.98
2022-12-18T03:30:11.345Z,85.02
2022-12-18T03:30:47.169Z,84.87
2022-12-18T03:31:23.062Z,85.04
2022-12-18T03:32:08.616Z,84.76
2022-12-18T03:32:46.003Z,84.89
2022-12-18T03:33:49.540Z,85.02
2022-12-18T03:34:27.993Z,84.64
2022-12-18T03:35:04.109Z,84.95
2022-12-18T03:35:40.197Z,85.02
2022-12-18T03:36:12.490Z,85.01
2022-12-18T03:36:44.409Z,85.06
2022-12-18T03:37:16.238Z,85.07
2022-12-18T03:37:47.881Z,84.99
2022-12-18T03:38:19.935Z,85.18
2022-12-18T03:38:52.080Z,85.02
2022-12-18T03:39:23.778Z,85.43
2022-12-18T03:39:55.305Z,84.95
2022-12-18T03:40:44.279Z,85.15
2022-12-18T03:41:53.969Z,84.92
2022-12-18T03:42:51.207Z,85.25
2022-12-18T03:43:35.226Z,85.19
2022-12-18T03:44:15.977Z,85.07
2022-12-18T03:45:01.480Z,85.32
2022-12-18T03:45:38.410Z,85.08
2022-12-18T03:46:17.532Z,85.27
2022-12-18T03:47:10.684Z,85.11
2022-12-18T03:47:59.729Z,85.16
2022-12-18T03:48:38.956Z,85.25
2022-12-18T03:49:26.657Z,85.20
2022-12-18T03:50:16.701Z,85.12
2022-12-18T03:50:51.541Z,85.30
2022-12-18T03:51:25.685Z,85.27
2022-12-18T03:52:12.513Z,85.00
2022-12-18T03:52:53.023Z,85.11
2022-12-18T03:53:45.792Z,85.22
2022-12-18T03:54:18.447Z,85.26
2022-12-18T03:54:50.876Z,85.31
2022-12-18T03:55:24.092Z,85.15
2022-12-18T03:55:57.964Z,85.22
2022-12-18T03:56:38.274Z,85.32
2022-12-18T03:57:20.400Z,85.08
2022-12-18T03:57:53.559Z,85.28
2022-12-18T03:58:33.909Z,85.02
2022-12-18T03:59:06.867Z,85.30
2022-12-18T03:59:39.428Z,85.30
2022-12-18T04:00:14.405Z,85.04
2022-12-18T04:00:48.847Z,85.31
2022-12-18T04:01:26.866Z,85.25
2022-12-18T04:02:00.797Z,85.02
2022-12-18T04:02:35.435Z,85.38
2022-12-18T04:03:10.039Z,85.07
2022-12-18T04:03:45.081Z,85.30
2022-12-18T04:04:19.694Z,84.90
2022-12-18T04:05:44.992Z,85.23
2022-12-18T04:06:17.793Z,84.88
2022-12-18T04:06:51.145Z,85.38
2022-12-18T04:07:23.908Z,85.40
2022-12-18T04:07:57.222Z,85.04
2022-12-18T04:08:30.049Z,84.86
2022-12-18T04:09:01.822Z,85.11
2022-12-18T04:09:35.171Z,85.15
2022-12-18T04:10:10.292Z,85.09
2022-12-18T04:10:41.750Z,85.33
2022-12-18T04:11:13.293Z,84.96
2022-12-18T04:11:45.370Z,85.12
2022-12-18T04:12:16.986Z,85.03
2022-12-18T04:12:48.934Z,85.07
2022-12-18T04:13:30.301Z,84.94
2022-12-18T04:14:06.976Z,84.92
2022-12-18T04:14:38.867Z,85.26
2022-12-18T04:15:11.607Z,84.93
2022-12-18T04:15:43.199Z,85.15
2022-12-18T04:16:14.805Z,85.14
2022-12-18T04:16:46.325Z,84.97
2022-12-18T04:17:17.902Z,84.95
2022-12-18T04:17:50.657Z,84.79
2022-12-18T04:18:22.185Z,85.12
2022-12-18T04:18:54.644Z,85.16
2022-12-18T04:19:26.138Z,84.98
2022-12-18T04:19:57.721Z,84.94
2022-12-18T04:20:29.310Z,84.86
2022-12-18T04:21:00.833Z,85.24
2022-12-18T04:21:32.319Z,85.00
2022-12-18T04:22:03.842Z,85.07
2022-12-18T04:22:36.378Z,84.99
2022-12-18T04:23:07.852Z,84.96
2022-12-18T04:23:39.724Z,85.23
2022-12-18T04:24:11.652Z,84.91
2022-12-18T04:24:43.261Z,84.86
2022-12-18T04:25:15.458Z,85.18
2022-12-18T04:25:48.568Z,85.06
2022-12-18T04:26:20.059Z,84.59
2022-12-18T04:26:51.510Z,84.78
2022-12-18T04:28:12.289Z,84.85
2022-12-18T04:28:43.830Z,84.94
2022-12-18T04:29:15.460Z,84.95
2022-12-18T04:29:47.045Z,84.80
2022-12-18T04:30:18.563Z,84.80
2022-12-18T04:30:50.554Z,85.09
2022-12-18T04:31:22.656Z,84.83
2022-12-18T04:31:54.167Z,85.25
2022-12-18T04:32:25.844Z,85.11
2022-12-18T04:32:57.339Z,84.83
2022-12-18T04:33:28.837Z,84.82
2022-12-18T04:34:00.269Z,84.97
2022-12-18T04:34:31.773Z,85.06
2022-12-18T04:35:05.190Z,84.80
2022-12-18T04:35:36.777Z,84.99
2022-12-18T04:36:08.473Z,84.76
2022-12-18T04:36:39.880Z,85.03
2022-12-18T04:37:12.248Z,84.94
2022-12-18T04:37:43.691Z,84.95
2022-12-18T04:38:15.391Z,84.78
2022-12-18T04:38:46.893Z,85.20
2022-12-18T04:39:18.427Z,85.15
2022-12-18T04:39:49.980Z,84.85
2022-12-18T04:40:21.485Z,85.17
2022-12-18T04:40:53.016Z,84.97
2022-12-18T04:41:24.570Z,85.04
2022-12-18T04:41:56.132Z,84.98
2022-12-18T04:42:27.973Z,85.14
2022-12-18T04:42:59.491Z,85.39
2022-12-18T04:43:31.073Z,85.04
2022-12-18T04:44:02.559Z,85.07
2022-12-18T04:44:34.023Z,85.08
2022-12-18T04:45:06.177Z,85.27
2022-12-18T04:45:37.663Z,84.80
2022-12-18T04:46:09.760Z,85.25
2022-12-18T04:46:41.517Z,85.14
2022-12-18T04:47:13.018Z,85.03
2022-12-18T04:47:44.699Z,84.67
2022-12-18T04:48:17.020Z,85.25
2022-12-18T04:48:48.463Z,84.95
2022-12-18T04:49:20.101Z,84.83
2022-12-18T04:49:51.583Z,85.10
2022-12-18T04:50:23.152Z,85.25
2022-12-18T04:50:54.631Z,84.94
2022-12-18T04:51:26.951Z,84.97
2022-12-18T04:51:58.600Z,84.94
2022-12-18T04:52:30.100Z,84.91
2022-12-18T04:53:01.860Z,85.11
2022-12-18T04:53:34.088Z,85.15
2022-12-18T04:54:05.693Z,85.02
2022-12-18T04:54:37.187Z,85.18
2022-12-18T04:55:08.885Z,85.09
2022-12-18T04:55:40.381Z,85.18
2022-12-18T04:56:14.421Z,85.38
2022-12-18T04:56:45.868Z,85.10
2022-12-18T04:57:19.013Z,84.93
2022-12-18T04:57:50.522Z,85.18
2022-12-18T04:58:21.976Z,85.40
2022-12-18T04:58:53.477Z,85.15
2022-12-18T04:59:25.010Z,84.84
2022-12-18T04:59:56.527Z,85.42
2022-12-18T05:00:28.060Z,84.93
2022-12-18T05:00:59.958Z,85.35
2022-12-18T05:01:34.860Z,85.09
2022-12-18T05:02:07.003Z,85.22
2022-12-18T05:02:38.639Z,85.16
2022-12-18T05:03:10.221Z,84.90
2022-12-18T05:03:42.283Z,85.00
2022-12-18T05:04:14.037Z,85.38
2022-12-18T05:04:45.472Z,84.93
2022-12-18T05:05:17.111Z,85.18
2022-12-18T05:05:52.265Z,85.06
2022-12-18T05:06:23.711Z,85.30
2022-12-18T05:06:55.264Z,85.46
2022-12-18T05:07:26.699Z,85.13
2022-12-18T05:07:58.207Z,85.22
2022-12-18T05:08:29.721Z,85.00
2022-12-18T05:09:01.233Z,85.14
2022-12-18T05:09:32.736Z,84.99
2022-12-18T05:10:08.134Z,84.70
2022-12-18T05:10:44.725Z,84.86
2022-12-18T05:11:19.642Z,85.07
2022-12-18T05:11:51.207Z,85.32
2022-12-18T05:12:22.828Z,85.06
2022-12-18T05:13:01.291Z,84.96
2022-12-18T05:13:33.889Z,85.09
2022-12-18T05:14:05.348Z,85.07
2022-12-18T05:14:36.884Z,85.06
2022-12-18T05:15:08.809Z,85.03
2022-12-18T05:15:40.305Z,85.18
2022-12-18T05:16:12.840Z,84.67
2022-12-18T05:16:44.397Z,84.82
2022-12-18T05:17:17.321Z,85.19
2022-12-18T05:17:48.773Z,84.90
2022-12-18T05:18:20.349Z,85.21
2022-12-18T05:18:51.939Z,85.10
2022-12-18T05:19:23.491Z,84.77
2022-12-18T05:19:55.002Z,84.77
2022-12-18T05:21:16.354Z,84.83
2022-12-18T05:21:47.884Z,84.79
2022-12-18T05:22:19.408Z,84.64
2022-12-18T05:22:51.883Z,84.98
2022-12-18T05:23:24.980Z,85.10
2022-12-18T05:23:56.381Z,84.91
2022-12-18T05:24:28.036Z,85.07
2022-12-18T05:24:59.469Z,84.68
2022-12-18T05:25:30.975Z,84.85
2022-12-18T05:26:05.575Z,84.90
2022-12-18T05:26:37.044Z,84.77
2022-12-18T05:27:08.599Z,84.77
2022-12-18T05:27:40.140Z,84.77
2022-12-18T05:28:11.775Z,84.97
2022-12-18T05:28:43.271Z,84.65
2022-12-18T05:29:14.844Z,84.64
2022-12-18T05:29:46.411Z,84.88
2022-12-18T05:30:18.030Z,84.61
2022-12-18T05:30:54.285Z,84.72
2022-12-18T05:31:25.823Z,84.57
2022-12-18T05:31:57.447Z,84.53
2022-12-18T05:32:28.910Z,84.71
2022-12-18T05:33:00.383Z,84.71
2022-12-18T05:33:34.231Z,84.58
2022-12-18T05:34:06.411Z,84.70
2022-12-18T05:34:38.346Z,84.76
2022-12-18T05:35:11.859Z,84.61
2022-12-18T05:35:43.402Z,84.41
2022-12-18T05:36:14.940Z,84.65
2022-12-18T05:36:47.765Z,84.66
2022-12-18T05:37:19.321Z,84.71
2022-12-18T05:37:50.761Z,84.97
2022-12-18T05:38:23.669Z,84.69
2022-12-18T05:38:55.215Z,84.57
2022-12-18T05:39:26.701Z,84.77
2022-12-18T05:39:58.143Z,84.69
2022-12-18T05:40:29.622Z,84.56
2022-12-18T05:41:02.753Z,84.33
2022-12-18T05:41:34.414Z,84.44
2022-12-18T05:42:05.962Z,84.81
2022-12-18T05:42:37.592Z,84.27
2022-12-18T05:43:09.204Z,84.25
2022-12-18T05:43:41.533Z,84.46
2022-12-18T05:44:13.485Z,84.58
2022-12-18T05:44:45.418Z,84.62
2022-12-18T05:45:17.020Z,84.52
2022-12-18T05:45:51.496Z,84.46
2022-12-18T05:46:23.081Z,84.46
2022-12-18T05:46:54.818Z,84.19
2022-12-18T05:47:27.828Z,84.24
2022-12-18T05:47:59.329Z,84.15
2022-12-18T05:48:30.869Z,84.44
2022-12-18T05:49:02.474Z,84.35
2022-12-18T05:49:33.942Z,84.36
2022-12-18T05:50:06.125Z,84.53
2022-12-18T05:50:38.342Z,84.54
2022-12-18T05:51:13.877Z,84.46
2022-12-18T05:51:45.689Z,84.51
2022-12-18T05:52:17.266Z,84.62
2022-12-18T05:52:48.721Z,84.22
2022-12-18T05:53:21.446Z,84.03
2022-12-18T05:53:53.010Z,84.01
2022-12-18T05:54:24.513Z,84.19
2022-12-18T05:54:56.033Z,84.53
2022-12-18T05:55:27.530Z,84.44
2022-12-18T05:56:03.005Z,84.25
2022-12-18T05:56:34.474Z,84.06
2022-12-18T05:57:05.968Z,83.92
2022-12-18T05:57:37.550Z,83.97
2022-12-18T05:58:10.833Z,84.13
2022-12-18T05:58:42.910Z,84.21
2022-12-18T05:59:14.426Z,84.09
2022-12-18T05:59:45.970Z,84.48
2022-12-18T06:00:20.768Z,84.45
2022-12-18T06:00:52.338Z,84.06
2022-12-18T06:01:27.387Z,84.22
2022-12-18T06:01:59.124Z,84.19
2022-12-18T06:02:30.692Z,84.12
2022-12-18T06:03:02.570Z,84.00
2022-12-18T06:03:34.343Z,84.27
2022-12-18T06:04:05.904Z,84.03
2022-12-18T06:04:38.288Z,84.12
2022-12-18T06:05:10.048Z,84.28
2022-12-18T06:05:46.065Z,84.22
2022-12-18T06:07:08.350Z,84.21
2022-12-18T06:07:39.750Z,84.24
2022-12-18T06:08:12.603Z,83.92
2022-12-18T06:08:46.773Z,84.29
2022-12-18T06:09:18.447Z,84.33
2022-12-18T06:09:49.922Z,84.02
2022-12-18T06:10:21.404Z,83.90
2022-12-18T06:10:53.592Z,84.34
2022-12-18T06:11:27.356Z,83.91
2022-12-18T06:11:58.922Z,84.12
2022-12-18T06:12:30.437Z,83.83
2022-12-18T06:13:02.371Z,83.91
2022-12-18T06:13:33.923Z,84.13
2022-12-18T06:14:07.167Z,83.95
2022-12-18T06:14:38.895Z,83.83
2022-12-18T06:15:10.444Z,83.82
2022-12-18T06:15:41.927Z,83.92
2022-12-18T06:16:13.486Z,84.04
2022-12-18T06:16:45.176Z,83.81
2022-12-18T06:17:16.608Z,83.84
2022-12-18T06:17:48.088Z,83.81
2022-12-18T06:18:19.599Z,83.84
2022-12-18T06:18:51.049Z,83.78
2022-12-18T06:19:22.583Z,83.88
2022-12-18T06:19:54.116Z,83.67
2022-12-18T06:20:30.419Z,83.82
2022-12-18T06:21:04.842Z,83.71
2022-12-18T06:21:36.244Z,84.01
2022-12-18T06:22:07.922Z,83.67
2022-12-18T06:22:39.481Z,83.75
2022-12-18T06:23:10.901Z,83.89
2022-12-18T06:23:43.206Z,83.91
2022-12-18T06:24:14.856Z,83.82
2022-12-18T06:24:46.321Z,83.58
2022-12-18T06:25:17.845Z,83.99
2022-12-18T06:25:49.491Z,83.60
2022-12-18T06:26:26.153Z,83.75
2022-12-18T06:26:59.371Z,83.94
2022-12-18T06:27:30.871Z,83.68
2022-12-18T06:28:02.488Z,83.91
2022-12-18T06:28:34.201Z,83.61
2022-12-18T06:29:06.634Z,83.53
2022-12-18T06:29:38.215Z,83.83
2022-12-18T06:30:10.516Z,83.77
2022-12-18T06:30:45.432Z,84.07
2022-12-18T06:31:17.111Z,83.43
2022-12-18T06:31:48.747Z,83.78
2022-12-18T06:32:20.308Z,83.38
2022-12-18T06:32:56.645Z,83.82
2022-12-18T06:33:29.729Z,83.89
2022-12-18T06:34:04.169Z,83.70
2022-12-18T06:34:44.479Z,83.99
2022-12-18T06:35:21.230Z,83.64
2022-12-18T06:35:57.831Z,84.04
2022-12-18T06:36:32.665Z,83.87
2022-12-18T06:37:07.454Z,84.16
2022-12-18T06:37:39.170Z,83.65
2022-12-18T06:38:12.078Z,83.76
2022-12-18T06:38:44.883Z,83.49
2022-12-18T06:39:16.381Z,83.70
2022-12-18T06:39:48.206Z,83.92
2022-12-18T06:40:19.910Z,83.65
2022-12-18T06:40:51.404Z,83.47
2022-12-18T06:41:23.107Z,83.79
2022-12-18T06:41:54.554Z,83.74
2022-12-18T06:42:26.290Z,83.87
2022-12-18T06:42:58.446Z,83.40
2022-12-18T06:43:32.039Z,83.73
2022-12-18T06:44:04.082Z,83.93
2022-12-18T06:44:35.474Z,83.69
2022-12-18T06:45:07.443Z,83.84
2022-12-18T06:45:38.933Z,83.83
2022-12-18T06:46:11.257Z,83.52
2022-12-18T06:46:42.703Z,83.63
2022-12-18T06:47:14.569Z,83.83
2022-12-18T06:47:46.171Z,83.83
2022-12-18T06:48:17.673Z,83.55
2022-12-18T06:48:50.817Z,83.61
2022-12-18T06:49:26.149Z,83.21
2022-12-18T06:50:00.272Z,83.44
2022-12-18T06:50:31.817Z,83.46
2022-12-18T06:51:04.022Z,83.40
2022-12-18T06:51:35.584Z,83.89
2022-12-18T06:52:07.293Z,83.49
2022-12-18T06:52:39.939Z,83.32
2022-12-18T06:53:11.517Z,83.43
2022-12-18T06:53:43.345Z,83.50
2022-12-18T06:54:15.112Z,83.57
2022-12-18T06:54:46.593Z,83.36
2022-12-18T06:55:18.288Z,83.61
2022-12-18T06:55:49.911Z,83.29
2022-12-18T06:56:21.516Z,83.32
2022-12-18T06:56:53.073Z,83.44
2022-12-18T06:57:24.573Z,83.46
2022-12-18T06:57:56.138Z,83.48
2022-12-18T06:58:28.635Z,83.46
2022-12-18T06:59:00.319Z,83.31
2022-12-18T06:59:31.748Z,83.13
2022-12-18T07:00:06.382Z,83.60
2022-12-18T07:00:38.023Z,83.55
2022-12-18T07:01:12.114Z,83.58
2022-12-18T07:01:43.715Z,83.22
2022-12-18T07:02:15.509Z,83.14
2022-12-18T07:02:47.250Z,83.48
2022-12-18T07:03:18.825Z,83.22
2022-12-18T07:03:56.773Z,83.41
2022-12-18T07:04:30.229Z,83.43
2022-12-18T07:05:06.194Z,83.36
2022-12-18T07:05:42.115Z,83.10
2022-12-18T07:06:21.101Z,83.54
2022-12-18T07:06:52.618Z,83.14
2022-12-18T07:07:24.170Z,83.37
2022-12-18T07:07:55.695Z,82.93
2022-12-18T07:08:27.181Z,83.21
2022-12-18T07:08:58.943Z,83.41
2022-12-18T07:09:30.453Z,83.08
2022-12-18T07:10:01.930Z,83.07
2022-12-18T07:10:33.463Z,83.29
2022-12-18T07:11:05.440Z,83.23
2022-12-18T07:11:36.985Z,83.29
2022-12-18T07:12:09.112Z,83.41
2022-12-18T07:12:42.467Z,83.31
2022-12-18T07:13:13.943Z,83.21
2022-12-18T07:13:46.641Z,83.07
2022-12-18T07:14:18.138Z,83.16
2022-12-18T07:14:49.597Z,82.97
2022-12-18T07:15:21.114Z,83.05
2022-12-18T07:15:52.583Z,83.07
2022-12-18T07:16:25.669Z,83.29
2022-12-18T07:16:57.555Z,82.82
2022-12-18T07:17:30.439Z,83.51
2022-12-18T07:18:02.041Z,83.36
2022-12-18T07:18:33.532Z,82.91
2022-12-18T07:19:04.983Z,83.06
2022-12-18T07:19:36.524Z,83.37
2022-12-18T07:20:08.749Z,83.50
2022-12-18T07:20:40.298Z,83.15
2022-12-18T07:21:17.102Z,83.43
2022-12-18T07:21:48.523Z,83.11
2022-12-18T07:22:20.041Z,83.53
2022-12-18T07:22:56.100Z,83.40
2022-12-18T07:23:27.852Z,83.19
2022-12-18T07:23:59.405Z,83.06
2022-12-18T07:24:30.941Z,83.42
2022-12-18T07:25:02.433Z,83.23
2022-12-18T07:25:37.918Z,83.52
2022-12-18T07:26:12.291Z,83.48
2022-12-18T07:26:46.759Z,83.24
2022-12-18T07:27:18.211Z,83.19
2022-12-18T07:27:49.717Z,83.61
2022-12-18T07:28:21.713Z,83.49
2022-12-18T07:28:58.707Z,83.55
2022-12-18T07:29:30.858Z,83.31